sensor_id;sensor_type;location;lat;lon;timestamp;P1;durP1;ratioP1;P2;durP2;ratioP2
15667;SDS011;7934;48.710;9.024;2023-08-08T00:02:19;1.97;;;1.87;;
15667;SDS011;7934;48.710;9.024;2023-08-08T00:04:48;4.23;;;2.30;;
15667;SDS011;7934;48.710;9.024;2023-08-08T00:07:15;2.67;;;2.23;;
15667;SDS011;7934;48.710;9.024;2023-08-08T00:09:42;2.50;;;2.30;;
15667;SDS011;7934;48.710;9.024;2023-08-08T00:12:09;2.43;;;2.33;;
15667;SDS011;7934;48.710;9.024;2023-08-08T00:14:38;2.80;;;2.53;;
15667;SDS011;7934;48.710;9.024;2023-08-08T00:17:05;4.67;;;2.23;;
15667;SDS011;7934;48.710;9.024;2023-08-08T00:19:32;1.90;;;1.80;;
15667;SDS011;7934;48.710;9.024;2023-08-08T00:22:00;2.10;;;2.00;;
15667;SDS011;7934;48.710;9.024;2023-08-08T00:24:27;2.27;;;2.00;;
15667;SDS011;7934;48.710;9.024;2023-08-08T00:26:54;2.50;;;2.30;;
15667;SDS011;7934;48.710;9.024;2023-08-08T00:29:21;4.60;;;2.57;;
15667;SDS011;7934;48.710;9.024;2023-08-08T00:31:50;3.40;;;2.30;;
15667;SDS011;7934;48.710;9.024;2023-08-08T00:34:17;4.00;;;2.00;;
15667;SDS011;7934;48.710;9.024;2023-08-08T00:36:44;2.57;;;2.10;;
15667;SDS011;7934;48.710;9.024;2023-08-08T00:39:11;2.20;;;2.10;;
15667;SDS011;7934;48.710;9.024;2023-08-08T00:41:38;2.33;;;1.97;;
15667;SDS011;7934;48.710;9.024;2023-08-08T00:44:05;1.80;;;1.67;;
15667;SDS011;7934;48.710;9.024;2023-08-08T00:46:32;1.97;;;1.87;;
15667;SDS011;7934;48.710;9.024;2023-08-08T00:49:01;2.00;;;1.90;;
15667;SDS011;7934;48.710;9.024;2023-08-08T00:51:28;3.63;;;2.10;;
15667;SDS011;7934;48.710;9.024;2023-08-08T00:53:55;1.90;;;1.80;;
15667;SDS011;7934;48.710;9.024;2023-08-08T00:56:23;1.90;;;1.70;;
15667;SDS011;7934;48.710;9.024;2023-08-08T00:58:50;2.03;;;1.60;;
15667;SDS011;7934;48.710;9.024;2023-08-08T01:01:17;2.77;;;2.07;;
15667;SDS011;7934;48.710;9.024;2023-08-08T01:03:44;2.20;;;1.67;;
15667;SDS011;7934;48.710;9.024;2023-08-08T01:06:16;2.27;;;1.80;;
15667;SDS011;7934;48.710;9.024;2023-08-08T01:08:47;2.43;;;1.60;;
15667;SDS011;7934;48.710;9.024;2023-08-08T01:11:15;4.00;;;3.40;;
15667;SDS011;7934;48.710;9.024;2023-08-08T01:13:43;2.13;;;2.03;;
15667;SDS011;7934;48.710;9.024;2023-08-08T01:16:11;1.93;;;1.83;;
15667;SDS011;7934;48.710;9.024;2023-08-08T01:18:39;1.70;;;1.60;;
15667;SDS011;7934;48.710;9.024;2023-08-08T01:21:07;2.37;;;2.00;;
15667;SDS011;7934;48.710;9.024;2023-08-08T01:23:40;2.30;;;1.63;;
15667;SDS011;7934;48.710;9.024;2023-08-08T01:26:09;1.80;;;1.60;;
15667;SDS011;7934;48.710;9.024;2023-08-08T01:28:39;1.90;;;1.80;;
15667;SDS011;7934;48.710;9.024;2023-08-08T01:31:06;1.87;;;1.60;;
15667;SDS011;7934;48.710;9.024;2023-08-08T01:33:33;2.50;;;1.70;;
15667;SDS011;7934;48.710;9.024;2023-08-08T01:36:03;2.33;;;1.70;;
15667;SDS011;7934;48.710;9.024;2023-08-08T01:38:33;1.70;;;1.70;;
15667;SDS011;7934;48.710;9.024;2023-08-08T01:41:00;1.83;;;1.73;;
15667;SDS011;7934;48.710;9.024;2023-08-08T01:43:29;2.03;;;1.93;;
15667;SDS011;7934;48.710;9.024;2023-08-08T01:45:57;2.27;;;1.70;;
15667;SDS011;7934;48.710;9.024;2023-08-08T01:48:25;3.00;;;1.80;;
15667;SDS011;7934;48.710;9.024;2023-08-08T01:50:52;2.67;;;1.77;;
15667;SDS011;7934;48.710;9.024;2023-08-08T01:53:19;4.67;;;1.87;;
15667;SDS011;7934;48.710;9.024;2023-08-08T01:55:46;2.50;;;1.70;;
15667;SDS011;7934;48.710;9.024;2023-08-08T01:58:13;1.63;;;1.63;;
15667;SDS011;7934;48.710;9.024;2023-08-08T02:00:42;2.13;;;1.90;;
15667;SDS011;7934;48.710;9.024;2023-08-08T02:03:10;1.90;;;1.80;;
15667;SDS011;7934;48.710;9.024;2023-08-08T02:05:37;1.90;;;1.80;;
15667;SDS011;7934;48.710;9.024;2023-08-08T02:08:05;2.20;;;2.00;;
15667;SDS011;7934;48.710;9.024;2023-08-08T02:10:32;2.40;;;1.90;;
15667;SDS011;7934;48.710;9.024;2023-08-08T02:12:59;1.90;;;1.80;;
15667;SDS011;7934;48.710;9.024;2023-08-08T02:15:26;5.60;;;3.30;;
15667;SDS011;7934;48.710;9.024;2023-08-08T02:17:55;1.80;;;1.70;;
15667;SDS011;7934;48.710;9.024;2023-08-08T02:20:22;2.17;;;1.77;;
15667;SDS011;7934;48.710;9.024;2023-08-08T02:22:49;3.90;;;1.90;;
15667;SDS011;7934;48.710;9.024;2023-08-08T02:25:18;2.27;;;1.80;;
15667;SDS011;7934;48.710;9.024;2023-08-08T02:27:45;2.20;;;2.00;;
15667;SDS011;7934;48.710;9.024;2023-08-08T02:30:12;1.53;;;1.50;;
15667;SDS011;7934;48.710;9.024;2023-08-08T02:32:40;2.10;;;2.00;;
15667;SDS011;7934;48.710;9.024;2023-08-08T02:35:09;1.90;;;1.70;;
15667;SDS011;7934;48.710;9.024;2023-08-08T02:37:36;3.70;;;1.87;;
15667;SDS011;7934;48.710;9.024;2023-08-08T02:40:03;1.97;;;1.80;;
15667;SDS011;7934;48.710;9.024;2023-08-08T02:42:31;2.10;;;1.87;;
15667;SDS011;7934;48.710;9.024;2023-08-08T02:44:58;3.33;;;2.13;;
15667;SDS011;7934;48.710;9.024;2023-08-08T02:47:25;2.60;;;1.67;;
15667;SDS011;7934;48.710;9.024;2023-08-08T02:49:52;2.50;;;2.30;;
15667;SDS011;7934;48.710;9.024;2023-08-08T02:52:20;2.17;;;2.00;;
15667;SDS011;7934;48.710;9.024;2023-08-08T02:54:48;2.37;;;2.27;;
15667;SDS011;7934;48.710;9.024;2023-08-08T02:57:15;2.10;;;2.00;;
15667;SDS011;7934;48.710;9.024;2023-08-08T02:59:42;2.03;;;1.93;;
15667;SDS011;7934;48.710;9.024;2023-08-08T03:02:09;2.67;;;2.47;;
15667;SDS011;7934;48.710;9.024;2023-08-08T03:04:36;3.10;;;2.10;;
15667;SDS011;7934;48.710;9.024;2023-08-08T03:07:03;2.67;;;2.47;;
15667;SDS011;7934;48.710;9.024;2023-08-08T03:09:32;2.20;;;2.10;;
15667;SDS011;7934;48.710;9.024;2023-08-08T03:11:59;2.53;;;2.13;;
15667;SDS011;7934;48.710;9.024;2023-08-08T03:14:26;4.33;;;2.80;;
15667;SDS011;7934;48.710;9.024;2023-08-08T03:16:54;3.33;;;1.90;;
15667;SDS011;7934;48.710;9.024;2023-08-08T03:19:21;3.53;;;2.30;;
15667;SDS011;7934;48.710;9.024;2023-08-08T03:21:48;2.30;;;2.20;;
15667;SDS011;7934;48.710;9.024;2023-08-08T03:24:15;4.07;;;2.13;;
15667;SDS011;7934;48.710;9.024;2023-08-08T03:26:44;2.80;;;1.90;;
15667;SDS011;7934;48.710;9.024;2023-08-08T03:29:11;2.70;;;2.50;;
15667;SDS011;7934;48.710;9.024;2023-08-08T03:31:38;2.67;;;2.43;;
15667;SDS011;7934;48.710;9.024;2023-08-08T03:34:05;3.20;;;2.40;;
15667;SDS011;7934;48.710;9.024;2023-08-08T03:36:32;2.43;;;2.13;;
15667;SDS011;7934;48.710;9.024;2023-08-08T03:39:00;2.60;;;2.33;;
15667;SDS011;7934;48.710;9.024;2023-08-08T03:41:28;2.23;;;1.90;;
15667;SDS011;7934;48.710;9.024;2023-08-08T03:43:56;4.10;;;2.17;;
15667;SDS011;7934;48.710;9.024;2023-08-08T03:46:23;3.43;;;2.13;;
15667;SDS011;7934;48.710;9.024;2023-08-08T03:48:50;2.30;;;2.03;;
15667;SDS011;7934;48.710;9.024;2023-08-08T03:51:17;2.13;;;2.03;;
15667;SDS011;7934;48.710;9.024;2023-08-08T03:53:45;2.60;;;2.40;;
15667;SDS011;7934;48.710;9.024;2023-08-08T03:56:12;1.80;;;1.70;;
15667;SDS011;7934;48.710;9.024;2023-08-08T03:58:39;1.90;;;1.80;;
15667;SDS011;7934;48.710;9.024;2023-08-08T04:01:07;4.43;;;1.90;;
15667;SDS011;7934;48.710;9.024;2023-08-08T04:03:34;2.27;;;1.93;;
15667;SDS011;7934;48.710;9.024;2023-08-08T04:06:02;3.23;;;2.20;;
15667;SDS011;7934;48.710;9.024;2023-08-08T04:08:30;3.23;;;1.80;;
15667;SDS011;7934;48.710;9.024;2023-08-08T04:10:57;2.07;;;1.97;;
15667;SDS011;7934;48.710;9.024;2023-08-08T04:13:24;3.20;;;2.40;;
15667;SDS011;7934;48.710;9.024;2023-08-08T04:15:52;2.00;;;1.90;;
15667;SDS011;7934;48.710;9.024;2023-08-08T04:18:20;2.13;;;1.97;;
15667;SDS011;7934;48.710;9.024;2023-08-08T04:20:47;2.00;;;1.90;;
15667;SDS011;7934;48.710;9.024;2023-08-08T04:23:14;4.33;;;2.30;;
15667;SDS011;7934;48.710;9.024;2023-08-08T04:25:41;2.37;;;2.27;;
15667;SDS011;7934;48.710;9.024;2023-08-08T04:28:08;3.27;;;1.90;;
15667;SDS011;7934;48.710;9.024;2023-08-08T04:30:36;2.10;;;2.00;;
15667;SDS011;7934;48.710;9.024;2023-08-08T04:33:03;2.13;;;2.00;;
15667;SDS011;7934;48.710;9.024;2023-08-08T04:35:32;2.20;;;2.10;;
15667;SDS011;7934;48.710;9.024;2023-08-08T04:37:59;2.07;;;1.97;;
15667;SDS011;7934;48.710;9.024;2023-08-08T04:40:26;3.20;;;2.07;;
15667;SDS011;7934;48.710;9.024;2023-08-08T04:42:53;1.83;;;1.73;;
15667;SDS011;7934;48.710;9.024;2023-08-08T04:45:20;4.40;;;2.10;;
15667;SDS011;7934;48.710;9.024;2023-08-08T04:47:47;2.13;;;2.03;;
15667;SDS011;7934;48.710;9.024;2023-08-08T04:50:15;2.00;;;1.90;;
15667;SDS011;7934;48.710;9.024;2023-08-08T04:52:43;1.87;;;1.73;;
15667;SDS011;7934;48.710;9.024;2023-08-08T04:55:10;1.90;;;1.80;;
15667;SDS011;7934;48.710;9.024;2023-08-08T04:57:37;1.73;;;1.60;;
15667;SDS011;7934;48.710;9.024;2023-08-08T05:00:05;5.70;;;1.90;;
15667;SDS011;7934;48.710;9.024;2023-08-08T05:02:33;4.17;;;2.00;;
15667;SDS011;7934;48.710;9.024;2023-08-08T05:05:01;1.80;;;1.70;;
15667;SDS011;7934;48.710;9.024;2023-08-08T05:07:28;2.77;;;2.03;;
15667;SDS011;7934;48.710;9.024;2023-08-08T05:09:57;2.10;;;2.00;;
15667;SDS011;7934;48.710;9.024;2023-08-08T05:12:24;3.30;;;2.10;;
15667;SDS011;7934;48.710;9.024;2023-08-08T05:14:51;3.07;;;2.20;;
15667;SDS011;7934;48.710;9.024;2023-08-08T05:17:18;1.93;;;1.80;;
15667;SDS011;7934;48.710;9.024;2023-08-08T05:19:45;2.27;;;1.67;;
15667;SDS011;7934;48.710;9.024;2023-08-08T05:22:12;2.70;;;1.87;;
15667;SDS011;7934;48.710;9.024;2023-08-08T05:24:39;3.37;;;1.80;;
15667;SDS011;7934;48.710;9.024;2023-08-08T05:27:08;1.73;;;1.73;;
15667;SDS011;7934;48.710;9.024;2023-08-08T05:29:36;1.90;;;1.80;;
15667;SDS011;7934;48.710;9.024;2023-08-08T05:32:04;1.93;;;1.83;;
15667;SDS011;7934;48.710;9.024;2023-08-08T05:34:32;2.17;;;1.80;;
15667;SDS011;7934;48.710;9.024;2023-08-08T05:36:59;2.17;;;1.60;;
15667;SDS011;7934;48.710;9.024;2023-08-08T05:39:27;2.83;;;1.87;;
15667;SDS011;7934;48.710;9.024;2023-08-08T05:41:54;2.60;;;1.50;;
15667;SDS011;7934;48.710;9.024;2023-08-08T05:44:22;4.20;;;1.50;;
15667;SDS011;7934;48.710;9.024;2023-08-08T05:46:49;2.30;;;1.60;;
15667;SDS011;7934;48.710;9.024;2023-08-08T05:49:16;1.60;;;1.60;;
15667;SDS011;7934;48.710;9.024;2023-08-08T05:51:44;3.77;;;1.80;;
15667;SDS011;7934;48.710;9.024;2023-08-08T05:54:11;3.37;;;1.53;;
15667;SDS011;7934;48.710;9.024;2023-08-08T05:56:38;1.90;;;1.80;;
15667;SDS011;7934;48.710;9.024;2023-08-08T05:59:05;6.20;;;2.00;;
15667;SDS011;7934;48.710;9.024;2023-08-08T06:01:33;1.87;;;1.77;;
15667;SDS011;7934;48.710;9.024;2023-08-08T06:04:01;3.53;;;1.90;;
15667;SDS011;7934;48.710;9.024;2023-08-08T06:06:28;2.70;;;1.60;;
15667;SDS011;7934;48.710;9.024;2023-08-08T06:08:55;4.40;;;1.70;;
15667;SDS011;7934;48.710;9.024;2023-08-08T06:11:22;3.50;;;1.83;;
15667;SDS011;7934;48.710;9.024;2023-08-08T06:13:50;7.63;;;2.23;;
15667;SDS011;7934;48.710;9.024;2023-08-08T06:16:17;3.43;;;1.80;;
15667;SDS011;7934;48.710;9.024;2023-08-08T06:18:46;3.80;;;1.50;;
15667;SDS011;7934;48.710;9.024;2023-08-08T06:21:13;4.47;;;1.73;;
15667;SDS011;7934;48.710;9.024;2023-08-08T06:23:40;3.23;;;1.60;;
15667;SDS011;7934;48.710;9.024;2023-08-08T06:26:08;4.57;;;1.70;;
15667;SDS011;7934;48.710;9.024;2023-08-08T06:28:36;2.47;;;1.40;;
15667;SDS011;7934;48.710;9.024;2023-08-08T06:31:03;6.80;;;1.60;;
15667;SDS011;7934;48.710;9.024;2023-08-08T06:33:30;2.10;;;1.30;;
15667;SDS011;7934;48.710;9.024;2023-08-08T06:35:59;1.73;;;1.20;;
15667;SDS011;7934;48.710;9.024;2023-08-08T06:38:26;2.80;;;1.50;;
15667;SDS011;7934;48.710;9.024;2023-08-08T06:40:53;3.03;;;1.40;;
15667;SDS011;7934;48.710;9.024;2023-08-08T06:43:22;2.03;;;1.90;;
15667;SDS011;7934;48.710;9.024;2023-08-08T06:45:49;2.47;;;1.40;;
15667;SDS011;7934;48.710;9.024;2023-08-08T06:48:16;4.57;;;1.60;;
15667;SDS011;7934;48.710;9.024;2023-08-08T06:50:43;1.40;;;1.23;;
15667;SDS011;7934;48.710;9.024;2023-08-08T06:53:12;4.10;;;1.60;;
15667;SDS011;7934;48.710;9.024;2023-08-08T06:55:39;1.63;;;1.53;;
15667;SDS011;7934;48.710;9.024;2023-08-08T06:58:06;1.50;;;1.50;;
15667;SDS011;7934;48.710;9.024;2023-08-08T07:00:33;5.40;;;1.73;;
15667;SDS011;7934;48.710;9.024;2023-08-08T07:03:00;2.37;;;1.30;;
15667;SDS011;7934;48.710;9.024;2023-08-08T07:05:27;4.17;;;1.83;;
15667;SDS011;7934;48.710;9.024;2023-08-08T07:07:55;2.43;;;1.80;;
15667;SDS011;7934;48.710;9.024;2023-08-08T07:10:23;5.07;;;1.70;;
15667;SDS011;7934;48.710;9.024;2023-08-08T07:12:52;1.67;;;1.57;;
15667;SDS011;7934;48.710;9.024;2023-08-08T07:15:19;2.27;;;1.40;;
15667;SDS011;7934;48.710;9.024;2023-08-08T07:17:46;3.30;;;1.50;;
15667;SDS011;7934;48.710;9.024;2023-08-08T07:20:13;5.80;;;1.67;;
15667;SDS011;7934;48.710;9.024;2023-08-08T07:22:40;3.97;;;1.57;;
15667;SDS011;7934;48.710;9.024;2023-08-08T07:25:08;2.83;;;1.40;;
15667;SDS011;7934;48.710;9.024;2023-08-08T07:27:37;5.77;;;1.47;;
15667;SDS011;7934;48.710;9.024;2023-08-08T07:30:05;2.63;;;1.33;;
15667;SDS011;7934;48.710;9.024;2023-08-08T07:32:33;2.67;;;1.40;;
15667;SDS011;7934;48.710;9.024;2023-08-08T07:35:00;1.43;;;1.43;;
15667;SDS011;7934;48.710;9.024;2023-08-08T07:37:30;1.97;;;1.43;;
15667;SDS011;7934;48.710;9.024;2023-08-08T07:39:58;1.47;;;1.37;;
15667;SDS011;7934;48.710;9.024;2023-08-08T07:42:25;1.57;;;1.47;;
15667;SDS011;7934;48.710;9.024;2023-08-08T07:44:54;1.23;;;1.23;;
15667;SDS011;7934;48.710;9.024;2023-08-08T07:47:21;1.67;;;1.30;;
15667;SDS011;7934;48.710;9.024;2023-08-08T07:49:48;1.33;;;1.23;;
15667;SDS011;7934;48.710;9.024;2023-08-08T07:52:15;2.97;;;1.50;;
15667;SDS011;7934;48.710;9.024;2023-08-08T07:54:42;1.50;;;1.40;;
15667;SDS011;7934;48.710;9.024;2023-08-08T07:57:09;1.80;;;1.50;;
15667;SDS011;7934;48.710;9.024;2023-08-08T07:59:37;1.40;;;1.10;;
15667;SDS011;7934;48.710;9.024;2023-08-08T08:02:05;3.23;;;1.30;;
15667;SDS011;7934;48.710;9.024;2023-08-08T08:04:33;1.53;;;1.37;;
15667;SDS011;7934;48.710;9.024;2023-08-08T08:07:01;1.47;;;1.10;;
15667;SDS011;7934;48.710;9.024;2023-08-08T08:09:28;3.10;;;1.23;;
15667;SDS011;7934;48.710;9.024;2023-08-08T08:11:55;1.83;;;1.30;;
15667;SDS011;7934;48.710;9.024;2023-08-08T08:14:22;2.83;;;1.57;;
15667;SDS011;7934;48.710;9.024;2023-08-08T08:16:49;2.30;;;1.27;;
15667;SDS011;7934;48.710;9.024;2023-08-08T08:19:18;1.70;;;1.50;;
15667;SDS011;7934;48.710;9.024;2023-08-08T08:21:45;3.93;;;1.20;;
15667;SDS011;7934;48.710;9.024;2023-08-08T08:24:12;3.23;;;1.33;;
15667;SDS011;7934;48.710;9.024;2023-08-08T08:26:40;4.63;;;1.60;;
15667;SDS011;7934;48.710;9.024;2023-08-08T08:29:07;2.60;;;1.57;;
15667;SDS011;7934;48.710;9.024;2023-08-08T08:31:34;2.43;;;1.53;;
15667;SDS011;7934;48.710;9.024;2023-08-08T08:34:02;2.30;;;1.40;;
15667;SDS011;7934;48.710;9.024;2023-08-08T08:36:31;1.33;;;1.30;;
15667;SDS011;7934;48.710;9.024;2023-08-08T08:38:58;2.67;;;1.60;;
15667;SDS011;7934;48.710;9.024;2023-08-08T08:41:26;1.67;;;1.57;;
15667;SDS011;7934;48.710;9.024;2023-08-08T08:43:54;1.30;;;1.30;;
15667;SDS011;7934;48.710;9.024;2023-08-08T08:46:21;1.50;;;1.40;;
15667;SDS011;7934;48.710;9.024;2023-08-08T08:48:48;4.33;;;1.40;;
15667;SDS011;7934;48.710;9.024;2023-08-08T08:51:16;2.10;;;1.70;;
15667;SDS011;7934;48.710;9.024;2023-08-08T08:53:45;1.30;;;1.20;;
15667;SDS011;7934;48.710;9.024;2023-08-08T08:56:12;2.17;;;1.50;;
15667;SDS011;7934;48.710;9.024;2023-08-08T08:58:41;1.00;;;1.00;;
15667;SDS011;7934;48.710;9.024;2023-08-08T09:01:09;6.50;;;1.47;;
15667;SDS011;7934;48.710;9.024;2023-08-08T09:03:36;1.40;;;1.30;;
15667;SDS011;7934;48.710;9.024;2023-08-08T09:06:04;1.53;;;1.40;;
15667;SDS011;7934;48.710;9.024;2023-08-08T09:08:31;1.20;;;1.10;;
15667;SDS011;7934;48.710;9.024;2023-08-08T09:11:00;2.13;;;1.23;;
15667;SDS011;7934;48.710;9.024;2023-08-08T09:13:33;1.60;;;1.20;;
15667;SDS011;7934;48.710;9.024;2023-08-08T09:16:00;1.87;;;1.33;;
15667;SDS011;7934;48.710;9.024;2023-08-08T09:18:27;1.87;;;1.20;;
15667;SDS011;7934;48.710;9.024;2023-08-08T09:20:54;1.30;;;1.20;;
15667;SDS011;7934;48.710;9.024;2023-08-08T09:23:21;1.93;;;1.10;;
15667;SDS011;7934;48.710;9.024;2023-08-08T09:25:48;1.27;;;1.27;;
15667;SDS011;7934;48.710;9.024;2023-08-08T09:28:17;1.30;;;1.30;;
15667;SDS011;7934;48.710;9.024;2023-08-08T09:30:44;2.50;;;1.27;;
15667;SDS011;7934;48.710;9.024;2023-08-08T09:33:12;2.17;;;1.20;;
15667;SDS011;7934;48.710;9.024;2023-08-08T09:35:40;4.33;;;1.50;;
15667;SDS011;7934;48.710;9.024;2023-08-08T09:38:07;4.80;;;1.40;;
15667;SDS011;7934;48.710;9.024;2023-08-08T09:40:34;1.60;;;1.50;;
15667;SDS011;7934;48.710;9.024;2023-08-08T09:43:02;3.03;;;1.53;;
15667;SDS011;7934;48.710;9.024;2023-08-08T09:45:37;1.87;;;1.10;;
15667;SDS011;7934;48.710;9.024;2023-08-08T09:48:06;3.00;;;1.07;;
15667;SDS011;7934;48.710;9.024;2023-08-08T09:50:34;1.93;;;1.20;;
15667;SDS011;7934;48.710;9.024;2023-08-08T09:53:03;2.03;;;1.40;;
15667;SDS011;7934;48.710;9.024;2023-08-08T09:55:40;3.93;;;1.30;;
15667;SDS011;7934;48.710;9.024;2023-08-08T09:58:14;1.53;;;1.50;;
15667;SDS011;7934;48.710;9.024;2023-08-08T10:00:50;2.00;;;1.10;;
15667;SDS011;7934;48.710;9.024;2023-08-08T10:03:18;2.60;;;1.30;;
15667;SDS011;7934;48.710;9.024;2023-08-08T10:05:45;2.57;;;1.30;;
15667;SDS011;7934;48.710;9.024;2023-08-08T10:08:16;1.00;;;1.00;;
15667;SDS011;7934;48.710;9.024;2023-08-08T10:10:52;1.47;;;1.37;;
15667;SDS011;7934;48.710;9.024;2023-08-08T10:13:20;1.30;;;1.20;;
15667;SDS011;7934;48.710;9.024;2023-08-08T10:15:49;2.53;;;1.20;;
15667;SDS011;7934;48.710;9.024;2023-08-08T10:18:16;1.30;;;1.20;;
15667;SDS011;7934;48.710;9.024;2023-08-08T10:20:48;3.90;;;1.13;;
15667;SDS011;7934;48.710;9.024;2023-08-08T10:23:16;1.57;;;1.47;;
15667;SDS011;7934;48.710;9.024;2023-08-08T10:25:44;1.73;;;1.20;;
15667;SDS011;7934;48.710;9.024;2023-08-08T10:28:12;1.10;;;1.10;;
15667;SDS011;7934;48.710;9.024;2023-08-08T10:30:45;1.40;;;1.30;;
15667;SDS011;7934;48.710;9.024;2023-08-08T10:33:18;1.83;;;0.90;;
15667;SDS011;7934;48.710;9.024;2023-08-08T10:35:57;1.10;;;1.10;;
15667;SDS011;7934;48.710;9.024;2023-08-08T10:38:24;1.20;;;1.20;;
15667;SDS011;7934;48.710;9.024;2023-08-08T10:40:57;1.60;;;1.50;;
15667;SDS011;7934;48.710;9.024;2023-08-08T10:43:25;3.10;;;1.40;;
15667;SDS011;7934;48.710;9.024;2023-08-08T10:45:56;1.00;;;1.00;;
15667;SDS011;7934;48.710;9.024;2023-08-08T10:48:27;1.27;;;1.27;;
15667;SDS011;7934;48.710;9.024;2023-08-08T10:50:54;1.73;;;1.27;;
15667;SDS011;7934;48.710;9.024;2023-08-08T10:53:22;1.40;;;1.30;;
15667;SDS011;7934;48.710;9.024;2023-08-08T10:55:56;2.83;;;1.13;;
15667;SDS011;7934;48.710;9.024;2023-08-08T10:58:34;1.70;;;1.07;;
15667;SDS011;7934;48.710;9.024;2023-08-08T11:01:01;3.60;;;1.30;;
15667;SDS011;7934;48.710;9.024;2023-08-08T11:03:31;0.97;;;0.97;;
15667;SDS011;7934;48.710;9.024;2023-08-08T11:05:59;1.43;;;1.33;;
15667;SDS011;7934;48.710;9.024;2023-08-08T11:08:26;1.27;;;1.20;;
15667;SDS011;7934;48.710;9.024;2023-08-08T11:10:53;2.00;;;0.90;;
15667;SDS011;7934;48.710;9.024;2023-08-08T11:13:21;1.13;;;1.00;;
15667;SDS011;7934;48.710;9.024;2023-08-08T11:15:48;3.90;;;1.10;;
15667;SDS011;7934;48.710;9.024;2023-08-08T11:18:15;2.23;;;1.10;;
15667;SDS011;7934;48.710;9.024;2023-08-08T11:20:44;1.57;;;1.30;;
15667;SDS011;7934;48.710;9.024;2023-08-08T11:23:11;1.27;;;1.20;;
15667;SDS011;7934;48.710;9.024;2023-08-08T11:25:40;1.90;;;1.30;;
15667;SDS011;7934;48.710;9.024;2023-08-08T11:28:08;1.33;;;1.23;;
15667;SDS011;7934;48.710;9.024;2023-08-08T11:30:36;2.00;;;1.50;;
15667;SDS011;7934;48.710;9.024;2023-08-08T11:33:04;1.03;;;1.03;;
15667;SDS011;7934;48.710;9.024;2023-08-08T11:35:32;1.23;;;1.13;;
15667;SDS011;7934;48.710;9.024;2023-08-08T11:38:02;3.00;;;1.07;;
15667;SDS011;7934;48.710;9.024;2023-08-08T11:40:31;1.23;;;1.13;;
15667;SDS011;7934;48.710;9.024;2023-08-08T11:43:00;1.27;;;1.20;;
15667;SDS011;7934;48.710;9.024;2023-08-08T11:45:28;1.53;;;0.90;;
15667;SDS011;7934;48.710;9.024;2023-08-08T11:47:55;1.60;;;1.37;;
15667;SDS011;7934;48.710;9.024;2023-08-08T11:50:23;1.10;;;1.10;;
15667;SDS011;7934;48.710;9.024;2023-08-08T11:52:52;1.40;;;1.30;;
15667;SDS011;7934;48.710;9.024;2023-08-08T11:55:26;1.40;;;1.40;;
15667;SDS011;7934;48.710;9.024;2023-08-08T11:57:53;2.03;;;1.03;;
15667;SDS011;7934;48.710;9.024;2023-08-08T12:00:25;2.70;;;1.40;;
15667;SDS011;7934;48.710;9.024;2023-08-08T12:02:53;1.50;;;1.30;;
15667;SDS011;7934;48.710;9.024;2023-08-08T12:05:20;2.87;;;1.20;;
15667;SDS011;7934;48.710;9.024;2023-08-08T12:07:48;1.17;;;1.10;;
15667;SDS011;7934;48.710;9.024;2023-08-08T12:10:19;1.17;;;1.17;;
15667;SDS011;7934;48.710;9.024;2023-08-08T12:12:52;2.43;;;1.10;;
15667;SDS011;7934;48.710;9.024;2023-08-08T12:15:22;1.53;;;1.30;;
15667;SDS011;7934;48.710;9.024;2023-08-08T12:17:50;1.20;;;1.10;;
15667;SDS011;7934;48.710;9.024;2023-08-08T12:20:17;1.80;;;1.00;;
15667;SDS011;7934;48.710;9.024;2023-08-08T12:22:44;1.20;;;1.17;;
15667;SDS011;7934;48.710;9.024;2023-08-08T12:25:12;1.13;;;1.10;;
15667;SDS011;7934;48.710;9.024;2023-08-08T12:27:39;1.23;;;1.23;;
15667;SDS011;7934;48.710;9.024;2023-08-08T12:30:08;1.33;;;1.23;;
15667;SDS011;7934;48.710;9.024;2023-08-08T12:32:36;1.60;;;1.40;;
15667;SDS011;7934;48.710;9.024;2023-08-08T12:35:03;1.57;;;1.30;;
15667;SDS011;7934;48.710;9.024;2023-08-08T12:37:31;1.27;;;1.20;;
15667;SDS011;7934;48.710;9.024;2023-08-08T12:40:01;1.80;;;1.70;;
15667;SDS011;7934;48.710;9.024;2023-08-08T12:42:31;1.40;;;1.33;;
15667;SDS011;7934;48.710;9.024;2023-08-08T12:44:58;1.47;;;1.30;;
15667;SDS011;7934;48.710;9.024;2023-08-08T12:47:26;1.53;;;1.43;;
15667;SDS011;7934;48.710;9.024;2023-08-08T12:49:54;1.43;;;1.43;;
15667;SDS011;7934;48.710;9.024;2023-08-08T12:52:22;1.70;;;1.23;;
15667;SDS011;7934;48.710;9.024;2023-08-08T12:54:49;1.30;;;1.30;;
15667;SDS011;7934;48.710;9.024;2023-08-08T12:57:17;1.30;;;1.20;;
15667;SDS011;7934;48.710;9.024;2023-08-08T12:59:45;2.27;;;1.73;;
15667;SDS011;7934;48.710;9.024;2023-08-08T13:02:12;1.13;;;1.13;;
15667;SDS011;7934;48.710;9.024;2023-08-08T13:04:40;1.33;;;1.23;;
15667;SDS011;7934;48.710;9.024;2023-08-08T13:07:07;2.40;;;1.33;;
15667;SDS011;7934;48.710;9.024;2023-08-08T13:09:34;1.50;;;1.50;;
15667;SDS011;7934;48.710;9.024;2023-08-08T13:12:02;2.70;;;1.47;;
15667;SDS011;7934;48.710;9.024;2023-08-08T13:14:30;2.10;;;1.50;;
15667;SDS011;7934;48.710;9.024;2023-08-08T13:16:58;1.43;;;1.43;;
15667;SDS011;7934;48.710;9.024;2023-08-08T13:19:25;1.70;;;1.40;;
15667;SDS011;7934;48.710;9.024;2023-08-08T13:21:54;2.17;;;1.43;;
15667;SDS011;7934;48.710;9.024;2023-08-08T13:24:21;2.70;;;1.50;;
15667;SDS011;7934;48.710;9.024;2023-08-08T13:26:49;1.20;;;1.20;;
15667;SDS011;7934;48.710;9.024;2023-08-08T13:29:16;1.83;;;1.50;;
15667;SDS011;7934;48.710;9.024;2023-08-08T13:31:44;1.57;;;1.47;;
15667;SDS011;7934;48.710;9.024;2023-08-08T13:34:11;1.80;;;1.70;;
15667;SDS011;7934;48.710;9.024;2023-08-08T13:36:38;1.33;;;1.30;;
15667;SDS011;7934;48.710;9.024;2023-08-08T13:39:07;1.30;;;1.20;;
15667;SDS011;7934;48.710;9.024;2023-08-08T13:41:39;1.73;;;1.60;;
15667;SDS011;7934;48.710;9.024;2023-08-08T13:44:06;1.47;;;1.40;;
15667;SDS011;7934;48.710;9.024;2023-08-08T13:46:34;1.60;;;1.40;;
15667;SDS011;7934;48.710;9.024;2023-08-08T13:49:01;1.60;;;1.50;;
15667;SDS011;7934;48.710;9.024;2023-08-08T13:51:28;1.80;;;1.70;;
15667;SDS011;7934;48.710;9.024;2023-08-08T13:53:55;1.50;;;1.40;;
15667;SDS011;7934;48.710;9.024;2023-08-08T13:56:24;1.50;;;1.40;;
15667;SDS011;7934;48.710;9.024;2023-08-08T13:58:51;2.53;;;1.73;;
15667;SDS011;7934;48.710;9.024;2023-08-08T14:01:18;2.20;;;1.40;;
15667;SDS011;7934;48.710;9.024;2023-08-08T14:03:45;2.47;;;1.57;;
15667;SDS011;7934;48.710;9.024;2023-08-08T14:06:12;1.53;;;1.43;;
15667;SDS011;7934;48.710;9.024;2023-08-08T14:08:39;1.50;;;1.43;;
15667;SDS011;7934;48.710;9.024;2023-08-08T14:11:07;1.77;;;1.50;;
15667;SDS011;7934;48.710;9.024;2023-08-08T14:13:35;2.37;;;1.63;;
15667;SDS011;7934;48.710;9.024;2023-08-08T14:16:04;1.60;;;1.57;;
15667;SDS011;7934;48.710;9.024;2023-08-08T14:18:31;1.60;;;1.50;;
15667;SDS011;7934;48.710;9.024;2023-08-08T14:20:58;2.20;;;1.40;;
15667;SDS011;7934;48.710;9.024;2023-08-08T14:23:27;2.00;;;1.57;;
15667;SDS011;7934;48.710;9.024;2023-08-08T14:25:55;2.27;;;1.50;;
15667;SDS011;7934;48.710;9.024;2023-08-08T14:28:22;1.83;;;1.37;;
15667;SDS011;7934;48.710;9.024;2023-08-08T14:30:50;1.40;;;1.30;;
15667;SDS011;7934;48.710;9.024;2023-08-08T14:33:17;1.53;;;1.40;;
15667;SDS011;7934;48.710;9.024;2023-08-08T14:35:44;1.80;;;1.50;;
15667;SDS011;7934;48.710;9.024;2023-08-08T14:38:12;2.00;;;1.67;;
15667;SDS011;7934;48.710;9.024;2023-08-08T14:40:39;1.60;;;1.50;;
15667;SDS011;7934;48.710;9.024;2023-08-08T14:43:06;3.30;;;1.50;;
15667;SDS011;7934;48.710;9.024;2023-08-08T14:45:36;1.70;;;1.60;;
15667;SDS011;7934;48.710;9.024;2023-08-08T14:48:05;2.73;;;1.60;;
15667;SDS011;7934;48.710;9.024;2023-08-08T14:50:33;2.93;;;1.30;;
15667;SDS011;7934;48.710;9.024;2023-08-08T14:53:00;1.70;;;1.60;;
15667;SDS011;7934;48.710;9.024;2023-08-08T14:55:27;2.87;;;1.60;;
15667;SDS011;7934;48.710;9.024;2023-08-08T14:57:54;2.77;;;1.50;;
15667;SDS011;7934;48.710;9.024;2023-08-08T15:00:22;1.97;;;1.40;;
15667;SDS011;7934;48.710;9.024;2023-08-08T15:02:49;1.67;;;1.57;;
15667;SDS011;7934;48.710;9.024;2023-08-08T15:05:17;1.43;;;1.40;;